Time;durP1;ratioP1;P1;durP2;ratioP2;P2;SDS_P1;SDS_P2;PMS_P1;PMS_P2;Temp;Humidity;BMP_temperature;BMP_pressure;BME280_temperature;BME280_humidity;BME280_pressure;Samples;Min_cycle;Max_cycle;Signal;HPM_P1;HPM_P2
2022/06/02 00:02:21;0.00;0.00;0.62;0.00;0.00;0.62;;;;;21.00;1.00;;;;;;2282316;60;1629;-84
2022/06/02 00:05:03;0.00;0.00;0.62;0.00;0.00;0.62;;;;;20.80;1.00;;;;;;2284471;60;1363;-85
2022/06/02 00:07:44;0.00;0.00;0.62;0.00;0.00;0.62;;;;;20.60;1.00;;;;;;2284628;60;1088;-86
2022/06/02 00:10:21;0.00;0.00;0.62;0.00;0.00;0.62;;;;;20.70;1.00;;;;;;2283956;60;1189;-85
2022/06/02 00:12:59;0.00;0.00;0.62;0.00;0.00;0.62;;;;;20.70;1.00;;;;;;2284473;60;1118;-85
2022/06/02 00:15:32;0.00;0.00;0.62;0.00;0.00;0.62;;;;;20.50;1.00;;;;;;2284260;60;1438;-87
2022/06/02 00:18:07;38347.00;0.13;67.03;0.00;0.00;0.62;;;;;20.30;1.00;;;;;;2284522;60;1043;-86
2022/06/02 00:20:42;0.00;0.00;0.62;0.00;0.00;0.62;;;;;20.20;1.00;;;;;;2284391;60;1918;-87
2022/06/02 00:23:36;43686.00;0.15;76.27;0.00;0.00;0.62;;;;;20.10;1.00;;;;;;2284484;60;1082;-86
2022/06/02 00:26:17;7504.00;0.03;13.62;0.00;0.00;0.62;;;;;20.00;1.00;;;;;;2284392;60;1405;-86
2022/06/02 00:28:55;0.00;0.00;0.62;0.00;0.00;0.62;;;;;19.90;1.00;;;;;;2284435;60;1166;-86
2022/06/02 00:31:33;230578.00;0.77;398.54;73459.00;0.24;127.74;;;;;19.60;1.00;;;;;;2284465;60;1074;-85
2022/06/02 00:34:15;174324.00;0.58;301.71;86515.00;0.29;150.29;;;;;19.60;1.00;;;;;;2284466;60;1473;-86
2022/06/02 00:36:52;214992.00;0.72;371.73;68395.00;0.23;118.99;;;;;19.40;1.00;;;;;;2284510;60;1117;-85
2022/06/02 00:39:20;211817.00;0.71;366.26;76220.00;0.25;132.51;;;;;19.40;1.00;;;;;;2284432;60;1186;-85
2022/06/02 00:41:59;268174.00;0.89;463.20;75427.00;0.25;131.14;;;;;19.60;1.00;;;;;;2284385;60;1928;-86
2022/06/02 00:44:35;286288.00;0.95;494.35;75082.00;0.25;130.54;;;;;19.80;1.00;;;;;;2284429;60;1490;-86
2022/06/02 00:47:09;319895.00;1.07;552.12;80988.00;0.27;140.74;;;;;20.00;1.00;;;;;;2284367;60;2304;-85
2022/06/02 00:49:48;314714.00;1.05;543.21;77211.00;0.26;134.22;;;;;20.10;1.00;;;;;;2284527;60;1015;-86
2022/06/02 00:52:29;327122.00;1.09;564.54;94425.00;0.31;163.95;;;;;20.10;1.00;;;;;;2284394;60;1022;-87
2022/06/02 00:58:22;349096.00;1.16;602.31;0.00;0.00;0.62;;;;;20.20;1.00;;;;;;2284449;60;648;-86
2022/06/02 01:00:56;159287.00;0.53;275.81;0.00;0.00;0.62;;;;;20.00;1.00;;;;;;2284343;60;1996;-86
2022/06/02 01:03:28;502477.00;1.67;866.09;92324.00;0.31;160.32;;;;;19.90;1.00;;;;;;2284374;60;1116;-86
2022/06/02 01:06:07;637835.00;2.13;1099.60;65034.00;0.22;113.18;;;;;19.90;1.00;;;;;;2284381;60;1768;-86
2022/06/02 01:08:57;458363.00;1.53;790.17;41266.00;0.14;72.08;;;;;20.00;1.00;;;;;;2284449;60;1331;-86
2022/06/02 01:11:35;79667.00;0.27;138.46;0.00;0.00;0.62;;;;;20.00;1.00;;;;;;2284199;60;1131;-86
2022/06/02 01:14:16;212836.00;0.71;368.02;74090.00;0.25;128.83;;;;;20.00;1.00;;;;;;2284266;60;1465;-84
2022/06/02 01:16:57;185015.00;0.62;320.13;77192.00;0.26;134.19;;;;;19.90;1.00;;;;;;2284328;60;1139;-85
2022/06/02 01:19:56;188948.00;0.63;326.90;78957.00;0.26;137.24;;;;;19.50;1.00;;;;;;2284322;60;1113;-85
2022/06/02 01:23:02;230603.00;0.77;398.59;79537.00;0.27;138.24;;;;;19.60;1.00;;;;;;2284927;60;1133;-85
2022/06/02 01:26:00;11401.00;0.04;20.38;0.00;0.00;0.62;;;;;19.70;1.00;;;;;;2284880;60;1321;-85
2022/06/02 01:28:48;26010.00;0.09;45.68;0.00;0.00;0.62;;;;;19.80;1.00;;;;;;2284971;60;1118;-85
2022/06/02 01:31:42;724749.00;2.42;1250.18;50482.00;0.17;88.02;;;;;20.00;1.00;;;;;;2284852;60;1123;-86
2022/06/02 01:34:26;369577.00;1.23;637.51;0.00;0.00;0.62;;;;;20.00;1.00;;;;;;2284930;60;1409;-85
2022/06/02 01:37:06;311025.00;1.04;536.87;20590.00;0.07;36.29;;;;;20.10;1.00;;;;;;2285081;60;1123;-85
2022/06/02 01:39:55;258854.00;0.86;447.18;10393.00;0.03;18.63;;;;;20.20;1.00;;;;;;2284948;60;1113;-86
2022/06/02 01:42:33;0.00;0.00;0.62;0.00;0.00;0.62;;;;;20.10;1.00;;;;;;2284902;60;1993;-85
2022/06/02 01:45:09;59945.00;0.20;104.38;0.00;0.00;0.62;;;;;20.00;1.00;;;;;;2284897;60;1372;-84
2022/06/02 01:47:42;0.00;0.00;0.62;0.00;0.00;0.62;;;;;20.00;1.00;;;;;;2285050;60;1145;-85
2022/06/02 01:50:37;0.00;0.00;0.62;0.00;0.00;0.62;;;;;20.00;1.00;;;;;;2285007;60;1123;-85
2022/06/02 01:53:14;0.00;0.00;0.62;0.00;0.00;0.62;;;;;19.90;1.00;;;;;;2284944;60;1573;-86
2022/06/02 01:56:11;50831.00;0.17;88.62;0.00;0.00;0.62;;;;;20.00;1.00;;;;;;2284960;60;1461;-85
2022/06/02 01:58:56;0.00;0.00;0.62;0.00;0.00;0.62;;;;;20.00;1.00;;;;;;2285008;60;1072;-85
2022/06/02 02:01:34;0.00;0.00;0.62;0.00;0.00;0.62;;;;;20.10;1.00;;;;;;2284858;60;1999;-86
2022/06/02 02:04:17;64155.00;0.21;111.66;0.00;0.00;0.62;;;;;19.80;1.00;;;;;;2284845;60;1410;-85
2022/06/02 02:06:54;70026.00;0.23;121.81;0.00;0.00;0.62;;;;;19.80;1.00;;;;;;2284873;60;1731;-86
2022/06/02 02:09:31;156757.00;0.52;271.45;30064.00;0.10;52.69;;;;;19.80;1.00;;;;;;2284948;60;1493;-86
2022/06/02 02:12:01;0.00;0.00;0.62;0.00;0.00;0.62;;;;;19.80;1.00;;;;;;2284977;60;1066;-86
2022/06/02 02:14:55;56215.00;0.19;97.93;0.00;0.00;0.62;;;;;19.80;1.00;;;;;;2284904;60;1309;-86
2022/06/02 02:17:48;370364.00;1.23;638.86;54106.00;0.18;94.29;;;;;19.80;1.00;;;;;;2284960;60;1249;-84
2022/06/02 02:20:27;356724.00;1.19;615.42;12354.00;0.04;22.03;;;;;19.80;1.00;;;;;;2284855;60;2001;-85
2022/06/02 02:23:02;652879.00;2.18;1125.62;16078.00;0.05;28.48;;;;;19.80;1.00;;;;;;2284816;60;1139;-86
2022/06/02 02:25:39;515501.00;1.72;888.52;14805.00;0.05;26.27;;;;;19.80;1.00;;;;;;2284924;60;1560;-86
2022/06/02 02:28:16;489255.00;1.63;843.33;23847.00;0.08;41.93;;;;;19.70;1.00;;;;;;2284670;60;1120;-86
2022/06/02 02:31:01;251287.00;0.84;434.16;0.00;0.00;0.62;;;;;19.70;1.00;;;;;;2284882;60;1592;-86
2022/06/02 02:33:40;51817.00;0.17;90.33;0.00;0.00;0.62;;;;;19.80;1.00;;;;;;2284668;60;1081;-87
2022/06/02 02:36:17;16043.00;0.05;28.42;0.00;0.00;0.62;;;;;19.70;1.00;;;;;;2284799;60;1511;-86
2022/06/02 02:38:54;0.00;0.00;0.62;0.00;0.00;0.62;;;;;19.60;1.00;;;;;;2284902;60;1096;-87
2022/06/02 02:41:29;46570.00;0.16;81.25;0.00;0.00;0.62;;;;;19.70;1.00;;;;;;2284850;60;1992;-86
2022/06/02 02:44:04;80344.00;0.27;139.63;0.00;0.00;0.62;;;;;19.70;1.00;;;;;;2284884;60;1054;-86
2022/06/02 02:46:37;0.00;0.00;0.62;0.00;0.00;0.62;;;;;19.60;1.00;;;;;;2284830;60;1105;-84
2022/06/02 02:49:13;227242.00;0.76;392.80;94131.00;0.31;163.44;;;;;19.50;1.00;;;;;;2284912;60;944;-85
2022/06/02 02:51:51;0.00;0.00;0.62;0.00;0.00;0.62;;;;;19.60;1.00;;;;;;2284868;60;1047;-85
2022/06/02 02:54:25;100892.00;0.34;175.11;0.00;0.00;0.62;;;;;19.60;1.00;;;;;;2284717;60;1388;-86
2022/06/02 02:57:01;0.00;0.00;0.62;0.00;0.00;0.62;;;;;19.40;1.00;;;;;;2284853;60;1143;-86
2022/06/02 02:59:39;0.00;0.00;0.62;0.00;0.00;0.62;;;;;19.10;1.00;;;;;;2284830;60;1720;-87
2022/06/02 03:02:15;0.00;0.00;0.62;0.00;0.00;0.62;;;;;19.00;1.00;;;;;;2284789;60;1923;-85
2022/06/02 03:04:53;124442.00;0.41;215.74;58021.00;0.19;101.06;;;;;19.10;1.00;;;;;;2284653;60;1566;-84
2022/06/02 03:07:22;0.00;0.00;0.62;0.00;0.00;0.62;;;;;19.30;1.00;;;;;;2284713;60;1069;-85
2022/06/02 03:10:02;0.00;0.00;0.62;0.00;0.00;0.62;;;;;19.10;1.00;;;;;;2284734;60;1739;-86
2022/06/02 03:12:53;122430.00;0.41;212.27;0.00;0.00;0.62;;;;;19.10;1.00;;;;;;2284764;60;1139;-85
2022/06/02 03:15:29;0.00;0.00;0.62;0.00;0.00;0.62;;;;;18.70;1.00;;;;;;2284706;60;1498;-85
2022/06/02 03:18:24;0.00;0.00;0.62;0.00;0.00;0.62;;;;;18.60;1.00;;;;;;2284758;60;936;-86
2022/06/02 03:20:58;10106.00;0.03;18.13;0.00;0.00;0.62;;;;;18.40;1.00;;;;;;2284620;60;1989;-84
2022/06/02 03:24:04;0.00;0.00;0.62;0.00;0.00;0.62;;;;;18.70;1.00;;;;;;2284724;60;1195;-85
2022/06/02 03:26:48;66267.00;0.22;115.31;0.00;0.00;0.62;;;;;18.50;1.00;;;;;;2284739;60;1150;-85
2022/06/02 03:29:24;33762.00;0.11;59.09;0.00;0.00;0.62;;;;;18.50;1.00;;;;;;2284673;60;1137;-86
2022/06/02 03:32:05;76143.00;0.25;132.37;9709.00;0.03;17.44;;;;;18.60;1.00;;;;;;2284694;60;1030;-85
2022/06/02 03:34:38;0.00;0.00;0.62;0.00;0.00;0.62;;;;;19.00;1.00;;;;;;2284527;60;1495;-86
2022/06/02 03:37:28;14887.00;0.05;26.41;0.00;0.00;0.62;;;;;18.80;1.00;;;;;;2284643;60;1231;-87
2022/06/02 03:40:23;0.00;0.00;0.62;0.00;0.00;0.62;;;;;19.00;1.00;;;;;;2284581;60;1048;-84
2022/06/02 03:43:02;59514.00;0.20;103.64;0.00;0.00;0.62;;;;;18.90;1.00;;;;;;2284539;60;2016;-84
2022/06/02 03:45:42;0.00;0.00;0.62;0.00;0.00;0.62;;;;;18.90;1.00;;;;;;2284553;60;1356;-86
2022/06/02 03:48:41;39595.00;0.13;69.19;0.00;0.00;0.62;;;;;18.70;1.00;;;;;;2284636;60;1073;-84
2022/06/02 03:51:22;57966.00;0.19;100.96;0.00;0.00;0.62;;;;;18.70;1.00;;;;;;2284589;60;1034;-84
2022/06/02 03:54:28;8388.00;0.03;15.16;0.00;0.00;0.62;;;;;18.90;1.00;;;;;;2284424;60;1722;-85
2022/06/02 03:57:14;0.00;0.00;0.62;0.00;0.00;0.62;;;;;18.90;1.00;;;;;;2280416;60;1417;-86
2022/06/02 04:00:07;0.00;0.00;0.62;0.00;0.00;0.62;;;;;18.90;1.00;;;;;;2284585;60;1154;-86
2022/06/02 04:02:41;315075.00;1.05;543.83;130534.00;0.44;226.25;;;;;18.80;1.00;;;;;;2284571;60;2002;-86
2022/06/02 04:05:48;166882.00;0.56;288.90;84002.00;0.28;145.95;;;;;19.00;1.00;;;;;;2284560;60;1437;-85
2022/06/02 04:08:40;228441.00;0.76;394.87;83773.00;0.28;145.55;;;;;19.10;1.00;;;;;;2284460;60;1574;-85
2022/06/02 04:11:22;122205.00;0.41;211.89;0.00;0.00;0.62;;;;;19.10;1.00;;;;;;2284577;60;1669;-84
2022/06/02 04:14:03;209048.00;0.70;361.50;0.00;0.00;0.62;;;;;19.10;1.00;;;;;;2284530;60;935;-86
2022/06/02 04:16:54;299465.00;1.00;517.00;77829.00;0.26;135.29;;;;;19.00;1.00;;;;;;2284539;60;1459;-86
2022/06/02 04:22:42;355385.00;1.18;613.12;33555.00;0.11;58.74;;;;;19.00;1.00;;;;;;2284526;60;1984;-85
2022/06/02 04:25:23;167389.00;0.56;289.77;6104.00;0.02;11.20;;;;;19.00;1.00;;;;;;2284357;60;1419;-84
2022/06/02 04:28:01;539344.00;1.80;929.59;107828.00;0.36;187.08;;;;;18.90;1.00;;;;;;2284482;60;1570;-87
2022/06/02 04:30:43;478376.00;1.59;824.60;71914.00;0.24;125.07;;;;;18.60;1.00;;;;;;2284240;60;946;-86
2022/06/02 04:33:17;527155.00;1.76;908.59;118293.00;0.39;205.14;;;;;18.20;1.00;;;;;;2284458;60;1182;-87
2022/06/02 04:35:56;242114.00;0.81;418.39;85206.00;0.28;148.03;;;;;17.80;1.00;;;;;;2284353;60;1486;-86
2022/06/02 04:38:31;350159.00;1.17;604.13;83614.00;0.28;145.28;;;;;18.10;1.00;;;;;;2284453;60;1787;-86
2022/06/02 04:41:10;125570368.00;418.57;80217880.00;79217.00;0.26;137.68;;;;;18.10;1.00;;;;;;2284440;60;1998;-85
2022/06/02 04:43:48;102933.00;0.34;178.63;0.00;0.00;0.62;;;;;18.20;1.00;;;;;;2284370;60;935;-85
2022/06/02 04:46:35;331324.00;1.10;571.76;0.00;0.00;0.62;;;;;18.50;1.00;;;;;;2284484;60;1501;-86
2022/06/02 04:49:09;154328.00;0.51;267.27;44219.00;0.15;77.19;;;;;18.80;1.00;;;;;;2284384;60;1045;-84
2022/06/02 04:51:50;61002.00;0.20;106.21;0.00;0.00;0.62;;;;;18.60;1.00;;;;;;2284458;60;1103;-85
2022/06/02 04:54:31;647870.00;2.16;1116.95;49359.00;0.16;86.08;;;;;18.70;1.00;;;;;;2284297;60;1347;-84
2022/06/02 04:57:07;372532.00;1.24;642.59;0.00;0.00;0.62;;;;;19.00;1.00;;;;;;2285030;60;1125;-86
2022/06/02 04:59:44;168556.00;0.56;291.78;0.00;0.00;0.62;;;;;18.50;1.00;;;;;;2285052;60;1022;-86
2022/06/02 05:02:24;624050.00;2.08;1075.76;24712.00;0.08;43.43;;;;;18.20;1.00;;;;;;2284911;60;1921;-86
2022/06/02 05:05:02;467718.00;1.56;806.26;22098.00;0.07;38.90;;;;;18.60;1.00;;;;;;2285009;60;1476;-85
2022/06/02 05:07:44;632675.00;2.11;1090.67;22205.00;0.07;39.09;;;;;19.10;1.00;;;;;;2285097;60;1082;-86
2022/06/02 05:10:21;809979.00;2.70;1398.53;120780.00;0.40;209.43;;;;;19.20;1.00;;;;;;2284971;60;1124;-85
2022/06/02 05:13:00;517760.00;1.73;892.41;0.00;0.00;0.62;;;;;19.50;1.00;;;;;;2285026;60;1098;-87
2022/06/02 05:15:52;681786.00;2.27;1175.67;72854.00;0.24;126.69;;;;;19.20;1.00;;;;;;2285072;60;1378;-86
2022/06/02 05:19:04;970732.00;3.24;1680.70;90478.00;0.30;157.13;;;;;19.40;1.00;;;;;;2285018;60;1031;-85
2022/06/02 05:21:55;496072.00;1.65;855.06;6511.00;0.02;11.90;;;;;19.80;1.00;;;;;;2268152;61;1930;-87
2022/06/02 05:24:53;864764.00;2.88;1494.32;101743.00;0.34;176.58;;;;;19.20;1.00;;;;;;2284148;60;1283;-85
2022/06/02 05:27:49;800683.00;2.67;1382.31;105108.00;0.35;182.39;;;;;18.90;1.00;;;;;;2284961;60;1554;-87
2022/06/02 05:30:51;880122.00;2.93;1521.23;110847.00;0.37;192.29;;;;;18.60;1.00;;;;;;2285000;60;1418;-84
2022/06/02 05:33:59;546918.00;1.82;942.65;26494.00;0.09;46.51;;;;;18.80;1.00;;;;;;2282365;60;1169;-85
2022/06/02 05:36:46;145158.00;0.48;251.46;0.00;0.00;0.62;;;;;19.30;1.00;;;;;;2284774;60;1659;-86
2022/06/02 05:39:34;107642.00;0.36;186.76;0.00;0.00;0.62;;;;;19.40;1.00;;;;;;2285022;60;1059;-87
2022/06/02 05:42:09;51056.00;0.17;89.01;0.00;0.00;0.62;;;;;20.80;1.00;;;;;;2285030;60;1930;-88
2022/06/02 05:44:58;178559.00;0.60;309.01;0.00;0.00;0.62;;;;;22.90;1.00;;;;;;2284916;60;1493;-87
2022/06/02 05:47:38;98940.00;0.33;171.74;0.00;0.00;0.62;;;;;25.00;1.00;;;;;;2284371;60;1111;-87
2022/06/02 05:50:22;317733.00;1.06;548.40;78305.00;0.26;136.11;;;;;26.50;1.00;;;;;;2284869;60;2197;-87
2022/06/02 05:53:00;0.00;0.00;0.62;0.00;0.00;0.62;;;;;27.10;1.00;;;;;;2284922;60;1596;-87
2022/06/02 05:55:39;0.00;0.00;0.62;0.00;0.00;0.62;;;;;26.90;1.00;;;;;;2284863;60;1328;-86
2022/06/02 05:58:30;437922.00;1.46;755.01;27022.00;0.09;47.43;;;;;27.10;1.00;;;;;;2284951;60;1074;-86
2022/06/02 06:01:13;501471.00;1.67;864.36;54968.00;0.18;95.78;;;;;27.00;1.00;;;;;;2284268;60;1072;-87
2022/06/02 06:04:18;473120.00;1.58;815.56;75599.00;0.25;131.43;;;;;26.40;1.00;;;;;;2284874;60;1099;-86
2022/06/02 06:06:52;148734.00;0.50;257.63;0.00;0.00;0.62;;;;;26.80;1.00;;;;;;2284901;60;1139;-87
2022/06/02 06:09:31;162376.00;0.54;281.13;2613.00;0.01;5.15;;;;;28.20;1.00;;;;;;2284846;60;1013;-87
2022/06/02 06:12:33;395753.00;1.32;682.50;0.00;0.00;0.62;;;;;27.80;1.00;;;;;;2284985;60;1230;-86
2022/06/02 06:15:05;0.00;0.00;0.62;0.00;0.00;0.62;;;;;26.20;1.00;;;;;;2274649;60;1300;-86
2022/06/02 06:17:47;211044.00;0.70;364.93;0.00;0.00;0.62;;;;;26.60;1.00;;;;;;2284813;60;1185;-86
2022/06/02 06:20:21;0.00;0.00;0.62;0.00;0.00;0.62;;;;;28.00;1.00;;;;;;2284850;60;1093;-85
2022/06/02 06:23:09;0.00;0.00;0.62;0.00;0.00;0.62;;;;;29.30;1.00;;;;;;2284846;60;1980;-86
2022/06/02 06:25:59;43852.00;0.15;76.55;0.00;0.00;0.62;;;;;29.30;1.00;;;;;;2284873;60;1306;-88
2022/06/02 06:28:34;247493.00;0.82;427.64;24319.00;0.08;42.75;;;;;29.40;1.00;;;;;;2284943;60;1043;-89
2022/06/02 06:31:07;0.00;0.00;0.62;0.00;0.00;0.62;;;;;28.80;1.00;;;;;;2284889;60;1026;-83
2022/06/02 06:33:57;48119.00;0.16;83.93;0.00;0.00;0.62;;;;;29.10;1.00;;;;;;2284816;60;1122;-86
2022/06/02 06:36:49;8092.00;0.03;14.64;0.00;0.00;0.62;;;;;29.70;1.00;;;;;;2284845;60;1066;-87
2022/06/02 06:39:31;17951.00;0.06;31.72;0.00;0.00;0.62;;;;;30.60;1.00;;;;;;2284753;60;1068;-87
2022/06/02 06:42:13;0.00;0.00;0.62;0.00;0.00;0.62;;;;;30.00;1.00;;;;;;2284861;60;1923;-84
2022/06/02 06:44:46;0.00;0.00;0.62;0.00;0.00;0.62;;;;;31.20;1.00;;;;;;2284617;60;1463;-88
2022/06/02 06:47:21;48712.00;0.16;84.96;0.00;0.00;0.62;;;;;31.40;1.00;;;;;;2284704;60;1046;-85
2022/06/02 06:50:04;17034.00;0.06;30.13;0.00;0.00;0.62;;;;;31.50;1.00;;;;;;2284739;60;1125;-85
2022/06/02 06:53:06;0.00;0.00;0.62;0.00;0.00;0.62;;;;;32.20;1.00;;;;;;2284832;60;1060;-85
2022/06/02 06:55:51;178630.00;0.60;309.13;0.00;0.00;0.62;;;;;31.80;1.00;;;;;;2284604;60;1342;-85
2022/06/02 06:58:33;27449.00;0.09;48.17;0.00;0.00;0.62;;;;;32.60;1.00;;;;;;2284673;60;916;-86
2022/06/02 07:01:09;121472.00;0.40;210.62;0.00;0.00;0.62;;;;;33.30;1.00;;;;;;2284463;60;1136;-86
2022/06/02 07:03:51;24884.00;0.08;43.73;0.00;0.00;0.62;;;;;31.70;1.00;;;;;;2284328;60;1993;-84
2022/06/02 07:06:33;332902.00;1.11;574.47;0.00;0.00;0.62;;;;;31.60;1.00;;;;;;2284429;60;1386;-85
2022/06/02 07:09:09;0.00;0.00;0.62;0.00;0.00;0.62;;;;;31.70;1.00;;;;;;2284313;60;1247;-84
2022/06/02 07:14:41;250550.00;0.84;432.90;54105.00;0.18;94.28;;;;;31.10;1.00;;;;;;2284711;60;1462;-86
2022/06/02 07:17:17;261185.00;0.87;451.19;0.00;0.00;0.62;;;;;30.20;1.00;;;;;;2284694;60;1017;-85
2022/06/02 07:20:00;179871.00;0.60;311.27;4414.00;0.01;8.27;;;;;29.80;1.00;;;;;;2284417;60;1034;-87
2022/06/02 07:22:42;91888.00;0.31;159.57;0.00;0.00;0.62;;;;;28.80;1.00;;;;;;2284423;60;1982;-87
2022/06/02 07:25:19;182481.00;0.61;315.76;67386.00;0.22;117.24;;;;;28.40;1.00;;;;;;2284217;60;1561;-84
2022/06/02 07:27:53;166250.00;0.55;287.81;69942.00;0.23;121.66;;;;;28.90;1.00;;;;;;2284598;60;1581;-87
2022/06/02 07:30:36;0.00;0.00;0.62;0.00;0.00;0.62;;;;;30.20;1.00;;;;;;2284722;60;1157;-87
2022/06/02 07:33:23;0.00;0.00;0.62;0.00;0.00;0.62;;;;;31.30;1.00;;;;;;2284726;60;1062;-86
2022/06/02 07:36:35;317372.00;1.06;547.78;104777.00;0.35;181.82;;;;;31.60;1.00;;;;;;2284451;60;1464;-88
2022/06/02 07:39:23;397943.00;1.33;686.27;26303.00;0.09;46.18;;;;;31.10;1.00;;;;;;2284504;60;1555;-85
2022/06/02 07:42:06;136525.00;0.46;236.58;0.00;0.00;0.62;;;;;31.00;1.00;;;;;;2284328;60;1917;-86
2022/06/02 07:45:20;262117.00;0.87;452.79;100912.00;0.34;175.15;;;;;30.90;1.00;;;;;;2284294;60;1416;-86
2022/06/02 07:48:17;600502.00;2.00;1035.09;59774.00;0.20;104.09;;;;;30.20;1.00;;;;;;2284504;60;977;-86
2022/06/02 07:50:52;374874.00;1.25;646.61;23796.00;0.08;41.84;;;;;30.80;1.00;;;;;;2284537;60;1204;-86
2022/06/02 07:53:29;729491.00;2.43;1258.42;107309.00;0.36;186.19;;;;;29.80;1.00;;;;;;2284504;60;1140;-87
2022/06/02 07:56:13;773813.00;2.58;1335.49;53816.00;0.18;93.79;;;;;29.70;1.00;;;;;;2284261;60;1340;-86
2022/06/02 07:58:52;382750.00;1.28;660.15;18699.00;0.06;33.02;;;;;30.00;1.00;;;;;;2284539;60;1186;-86
2022/06/02 08:01:51;241471.00;0.80;417.28;20150.00;0.07;35.53;;;;;30.50;1.00;;;;;;2284414;60;1154;-87
2022/06/02 08:04:29;302573.00;1.01;522.34;3979.00;0.01;7.52;;;;;31.00;1.00;;;;;;2284379;60;1409;-87
2022/06/02 08:07:04;192507.00;0.64;333.02;24900.00;0.08;43.75;;;;;30.70;1.00;;;;;;2284250;60;1673;-87
2022/06/02 08:09:45;121838.00;0.41;211.25;0.00;0.00;0.62;;;;;30.70;1.00;;;;;;2284488;60;1105;-88
2022/06/02 08:12:22;131076.00;0.44;227.18;0.00;0.00;0.62;;;;;31.00;1.00;;;;;;2284474;60;1138;-85
2022/06/02 08:14:59;12131.00;0.04;21.64;0.00;0.00;0.62;;;;;29.90;1.00;;;;;;2284457;60;1386;-86
2022/06/02 08:17:37;135222.00;0.45;234.33;0.00;0.00;0.62;;;;;29.80;1.00;;;;;;2284555;60;1094;-88
2022/06/02 08:20:13;54252.00;0.18;94.54;0.00;0.00;0.62;;;;;30.50;1.00;;;;;;2284446;60;1663;-87
2022/06/02 08:22:51;0.00;0.00;0.62;0.00;0.00;0.62;;;;;30.70;1.00;;;;;;2284515;60;1990;-85
2022/06/02 08:25:22;0.00;0.00;0.62;0.00;0.00;0.62;;;;;30.10;1.00;;;;;;2284444;60;1431;-84
2022/06/02 08:28:16;0.00;0.00;0.62;0.00;0.00;0.62;;;;;29.10;1.00;;;;;;2284526;60;1120;-85
2022/06/02 08:30:50;171903.00;0.57;297.54;40555.00;0.14;70.85;;;;;29.70;1.00;;;;;;2284289;60;1133;-84
2022/06/02 08:33:43;74696.00;0.25;129.87;0.00;0.00;0.62;;;;;30.70;1.00;;;;;;2284329;60;1137;-85
2022/06/02 08:36:14;47373.00;0.16;82.64;0.00;0.00;0.62;;;;;30.50;1.00;;;;;;2284265;60;1475;-84
2022/06/02 08:39:04;0.00;0.00;0.62;0.00;0.00;0.62;;;;;31.30;1.00;;;;;;2284396;60;1066;-85
2022/06/02 08:42:05;0.00;0.00;0.62;0.00;0.00;0.62;;;;;30.50;1.00;;;;;;2284405;60;1096;-86
2022/06/02 08:45:13;0.00;0.00;0.62;0.00;0.00;0.62;;;;;30.50;1.00;;;;;;2284401;60;1733;-85
2022/06/02 08:48:04;138523.00;0.46;240.02;14708.00;0.05;26.10;;;;;30.40;1.00;;;;;;2284297;60;998;-87
2022/06/02 08:51:14;113619.00;0.38;197.07;0.00;0.00;0.62;;;;;30.30;1.00;;;;;;2284278;60;1049;-84
2022/06/02 08:54:25;9207.00;0.03;16.58;0.00;0.00;0.62;;;;;29.40;1.00;;;;;;2284423;60;1126;-86
2022/06/02 08:57:16;19726.00;0.07;34.80;0.00;0.00;0.62;;;;;28.70;1.00;;;;;;2284457;60;1062;-86
2022/06/02 09:00:24;257608.00;0.86;445.04;0.00;0.00;0.62;;;;;28.90;1.00;;;;;;2284465;60;1126;-86
2022/06/02 09:03:26;77800.00;0.26;135.24;0.00;0.00;0.62;;;;;28.30;1.00;;;;;;2284289;60;1923;-85
2022/06/02 09:06:42;70119.00;0.23;121.97;0.00;0.00;0.62;;;;;28.60;1.00;;;;;;2284337;60;1379;-86
2022/06/02 09:09:47;0.00;0.00;0.62;0.00;0.00;0.62;;;;;28.10;1.00;;;;;;2283804;60;1129;-86
2022/06/02 09:12:50;29051.00;0.10;50.94;0.00;0.00;0.62;;;;;28.70;1.00;;;;;;2284321;60;1547;-85
2022/06/02 09:15:39;329560.00;1.10;568.73;73936.00;0.25;128.56;;;;;28.40;1.00;;;;;;2283414;60;1412;-85
2022/06/02 09:18:38;87964.00;0.29;152.79;0.00;0.00;0.62;;;;;28.20;1.00;;;;;;2284365;60;1113;-85
2022/06/02 09:21:14;0.00;0.00;0.62;0.00;0.00;0.62;;;;;28.10;1.00;;;;;;2284403;60;1232;-84
2022/06/02 09:23:56;104805.00;0.35;181.87;39062.00;0.13;68.27;;;;;27.20;1.00;;;;;;2284339;60;1988;-85
2022/06/02 09:26:41;215840.00;0.72;373.19;0.00;0.00;0.62;;;;;26.60;1.00;;;;;;2284189;60;1611;-85
2022/06/02 09:29:24;0.00;0.00;0.62;0.00;0.00;0.62;;;;;26.40;1.00;;;;;;2284339;60;1149;-86
2022/06/02 09:32:26;11957.00;0.04;21.34;0.00;0.00;0.62;;;;;26.10;1.00;;;;;;2283912;60;982;-84
2022/06/02 09:35:20;16980.00;0.06;30.04;0.00;0.00;0.62;;;;;25.90;1.00;;;;;;2284281;60;1420;-85
2022/06/02 09:38:24;0.00;0.00;0.62;0.00;0.00;0.62;;;;;25.60;1.00;;;;;;2284375;60;1081;-87
2022/06/02 09:41:05;202198.00;0.67;349.71;0.00;0.00;0.62;;;;;24.80;1.00;;;;;;2284288;60;1758;-86
2022/06/02 09:44:08;89542.00;0.30;155.52;0.00;0.00;0.62;;;;;25.00;1.00;;;;;;2284865;60;1927;-83
2022/06/02 09:47:11;0.00;0.00;0.62;0.00;0.00;0.62;;;;;24.90;1.00;;;;;;2284867;60;1293;-85
2022/06/02 09:50:10;0.00;0.00;0.62;0.00;0.00;0.62;;;;;25.40;1.00;;;;;;2277078;60;1232;-83
2022/06/02 09:52:58;90710.00;0.30;157.53;15084.00;0.05;26.76;;;;;25.40;1.00;;;;;;2284778;60;1071;-85
2022/06/02 09:55:37;110049.00;0.37;190.91;44329.00;0.15;77.38;;;;;25.00;1.00;;;;;;2284614;60;1418;-83
2022/06/02 09:58:43;0.00;0.00;0.62;0.00;0.00;0.62;;;;;25.20;1.00;;;;;;2284962;60;1223;-85
2022/06/02 10:01:27;451.00;0.00;1.40;0.00;0.00;0.62;;;;;25.30;1.00;;;;;;2277762;60;1223;-85
2022/06/02 10:04:27;62676.00;0.21;109.10;0.00;0.00;0.62;;;;;25.20;1.00;;;;;;2284764;60;1990;-84
2022/06/02 10:07:32;0.00;0.00;0.62;0.00;0.00;0.62;;;;;25.00;1.00;;;;;;2284783;60;1070;-85
2022/06/02 10:10:34;29173.00;0.10;51.15;0.00;0.00;0.62;;;;;25.40;1.00;;;;;;2284838;60;1737;-84
2022/06/02 10:13:42;169640.00;0.57;293.65;75524.00;0.25;131.30;;;;;25.50;1.00;;;;;;2284598;60;2156;-84
2022/06/02 10:16:50;486928.00;1.62;839.32;26279.00;0.09;46.14;;;;;25.30;1.00;;;;;;2284582;60;1469;-84
2022/06/02 10:19:53;226745.00;0.76;391.95;29128.00;0.10;51.07;;;;;25.20;1.00;;;;;;2284898;60;1050;-85
2022/06/02 10:22:29;183867.00;0.61;318.15;0.00;0.00;0.62;;;;;25.20;1.00;;;;;;2284862;60;1447;-85
2022/06/02 10:25:21;251744.00;0.84;434.95;0.00;0.00;0.62;;;;;25.60;1.00;;;;;;2284809;60;1785;-85
2022/06/02 10:28:22;128249.00;0.43;222.31;0.00;0.00;0.62;;;;;26.20;1.00;;;;;;2284758;60;943;-85
2022/06/02 10:31:30;140099.00;0.47;242.74;42535.00;0.14;74.27;;;;;26.10;1.00;;;;;;2284408;60;1141;-83
2022/06/02 10:34:28;67251.00;0.22;117.01;0.00;0.00;0.62;;;;;25.80;1.00;;;;;;2284754;60;1042;-84
2022/06/02 10:37:15;0.00;0.00;0.62;0.00;0.00;0.62;;;;;25.20;1.00;;;;;;2278516;60;1278;-85
2022/06/02 10:40:02;58131.00;0.19;101.25;0.00;0.00;0.62;;;;;25.40;1.00;;;;;;2284842;60;1113;-84
2022/06/02 10:43:05;177463.00;0.59;307.12;0.00;0.00;0.62;;;;;25.60;1.00;;;;;;2284701;60;1122;-84
2022/06/02 10:46:03;52764.00;0.18;91.97;0.00;0.00;0.62;;;;;25.90;1.00;;;;;;2284206;60;1281;-83
2022/06/02 10:49:07;154562.00;0.52;267.67;0.00;0.00;0.62;;;;;26.10;1.00;;;;;;2283840;60;2112;-83
2022/06/02 10:52:38;548366.00;1.83;945.14;49946.00;0.17;87.09;;;;;25.80;1.00;;;;;;2276763;60;1382;-84
2022/06/02 10:55:43;0.00;0.00;0.62;0.00;0.00;0.62;;;;;25.00;1.00;;;;;;2283512;60;1396;-83
2022/06/02 10:58:46;191523.00;0.64;331.33;65354.00;0.22;113.73;;;;;25.00;1.00;;;;;;2284672;60;1123;-85
2022/06/02 11:01:57;229290.00;0.76;396.33;0.00;0.00;0.62;;;;;25.50;1.00;;;;;;2284699;60;1094;-85
2022/06/02 11:05:07;154610.00;0.52;267.75;19041.00;0.06;33.61;;;;;25.60;1.00;;;;;;2284742;60;1917;-85
2022/06/02 11:08:16;52877.00;0.18;92.16;0.00;0.00;0.62;;;;;25.30;1.00;;;;;;2284672;60;1432;-86
2022/06/02 11:11:12;0.00;0.00;0.62;0.00;0.00;0.62;;;;;25.50;1.00;;;;;;2268610;61;1117;-85
2022/06/02 11:14:17;20989.00;0.07;36.98;0.00;0.00;0.62;;;;;25.40;1.00;;;;;;2282801;60;1373;-84
2022/06/02 11:17:18;11146.00;0.04;19.93;0.00;0.00;0.62;;;;;25.10;1.00;;;;;;2284386;60;1188;-85
2022/06/02 11:20:20;0.00;0.00;0.62;0.00;0.00;0.62;;;;;25.40;1.00;;;;;;2273941;60;1301;-86
2022/06/02 11:23:28;0.00;0.00;0.62;0.00;0.00;0.62;;;;;25.20;1.00;;;;;;2284553;60;1915;-84
2022/06/02 11:26:41;2722.00;0.01;5.34;0.00;0.00;0.62;;;;;24.90;1.00;;;;;;2283353;60;1387;-86
2022/06/02 11:29:52;0.00;0.00;0.62;0.00;0.00;0.62;;;;;25.10;1.00;;;;;;2284406;61;1140;-85